Time;durP1;ratioP1;P1;durP2;ratioP2;P2;SDS_P1;SDS_P2;PMS_P1;PMS_P2;Temp;Humidity;BMP_temperature;BMP_pressure;BME280_temperature;BME280_humidity;BME280_pressure;Samples;Min_cycle;Max_cycle;Signal;HPM_P1;HPM_P2
2022/11/23 00:01:29;;;;;;;9.03;3.17;;;10.20;99.90;;;;;;5000084;28;20258;-80
2022/11/23 00:03:59;;;;;;;12.20;2.50;;;10.20;99.90;;;;;;4999435;28;20202;-82
2022/11/23 00:06:25;;;;;;;10.23;2.70;;;10.10;99.90;;;;;;4980714;28;20178;-81
2022/11/23 00:08:52;;;;;;;13.20;2.73;;;10.10;99.90;;;;;;4999704;28;20174;-82
2022/11/23 00:11:19;;;;;;;11.77;2.87;;;10.10;99.90;;;;;;5000933;28;20167;-82
2022/11/23 00:13:45;;;;;;;8.13;2.60;;;10.10;99.90;;;;;;5002300;28;20217;-82
2022/11/23 00:16:22;;;;;;;11.27;2.63;;;10.10;99.90;;;;;;4982242;28;20207;-81
2022/11/23 00:18:52;;;;;;;11.73;2.70;;;10.10;99.90;;;;;;5000199;28;20185;-82
2022/11/23 00:21:20;;;;;;;12.00;3.17;;;10.10;99.90;;;;;;4999141;28;20193;-81
2022/11/23 00:23:46;;;;;;;11.00;2.60;;;10.20;99.90;;;;;;4981651;28;20193;-83
2022/11/23 00:26:16;;;;;;;7.30;2.30;;;10.20;99.90;;;;;;4999248;28;20207;-81
2022/11/23 00:28:44;;;;;;;12.90;3.03;;;10.10;99.90;;;;;;4998510;28;20198;-82
2022/11/23 00:31:16;;;;;;;9.40;2.77;;;10.00;99.90;;;;;;4998865;28;20250;-81
2022/11/23 00:33:47;;;;;;;8.10;2.60;;;10.10;99.90;;;;;;4985604;28;20206;-81
2022/11/23 00:36:15;;;;;;;11.30;3.10;;;10.00;99.90;;;;;;4994803;28;20177;-80
2022/11/23 00:38:42;;;;;;;9.97;2.60;;;10.10;99.90;;;;;;4994293;28;20175;-80
2022/11/23 00:41:20;;;;;;;12.87;2.67;;;10.00;99.90;;;;;;4992388;28;20278;-81
2022/11/23 00:43:48;;;;;;;9.70;2.90;;;10.10;99.90;;;;;;4985869;28;20619;-82
2022/11/23 00:46:18;;;;;;;11.10;3.17;;;10.10;99.90;;;;;;4981678;28;20177;-83
2022/11/23 00:48:46;;;;;;;8.37;2.30;;;10.10;99.90;;;;;;4982176;28;20215;-82
2022/11/23 00:51:18;;;;;;;9.33;2.47;;;10.20;99.90;;;;;;4998949;28;20171;-81
2022/11/23 00:53:44;;;;;;;12.13;2.70;;;10.10;99.20;;;;;;4984804;28;20174;-81
2022/11/23 00:56:11;;;;;;;11.03;2.63;;;10.20;97.80;;;;;;4982878;28;20662;-80
2022/11/23 00:58:38;;;;;;;10.13;2.77;;;10.10;98.10;;;;;;5000797;28;20706;-81
2022/11/23 01:01:10;;;;;;;9.43;2.63;;;10.10;98.20;;;;;;5000711;28;20210;-81
2022/11/23 01:03:38;;;;;;;7.27;2.03;;;10.00;98.80;;;;;;5001921;28;20177;-80
2022/11/23 01:06:10;;;;;;;14.03;3.00;;;10.00;98.80;;;;;;5000886;28;20179;-81
2022/11/23 01:08:36;;;;;;;9.17;2.33;;;10.00;98.60;;;;;;4982855;28;20631;-83
2022/11/23 01:11:06;;;;;;;11.33;2.27;;;10.10;97.60;;;;;;5001160;28;20198;-81
2022/11/23 01:13:32;;;;;;;10.60;3.03;;;10.00;97.50;;;;;;4983744;28;20179;-80
2022/11/23 01:15:58;;;;;;;12.77;2.60;;;10.00;98.30;;;;;;5001348;28;20705;-81
2022/11/23 01:18:25;;;;;;;11.43;2.93;;;10.00;97.70;;;;;;4982537;28;20175;-81
2022/11/23 01:20:51;;;;;;;13.07;2.90;;;10.00;97.90;;;;;;4988189;28;20309;-80
2022/11/23 01:23:17;;;;;;;9.33;3.23;;;10.10;96.30;;;;;;5024054;28;20178;-83
2022/11/23 01:25:43;;;;;;;12.33;2.73;;;10.10;95.10;;;;;;5023461;28;20178;-82
2022/11/23 01:28:08;;;;;;;10.93;2.80;;;10.20;94.90;;;;;;5021530;28;20285;-81
2022/11/23 01:30:35;;;;;;;13.50;2.77;;;10.10;95.40;;;;;;5020454;28;20187;-80
2022/11/23 01:33:02;;;;;;;9.77;2.90;;;10.00;95.50;;;;;;5019396;28;20182;-81
2022/11/23 01:35:28;;;;;;;11.70;2.60;;;10.10;95.70;;;;;;5004585;28;20175;-81
2022/11/23 01:37:54;;;;;;;9.60;2.37;;;10.00;95.30;;;;;;5002369;28;20210;-82
2022/11/23 01:40:19;;;;;;;9.53;2.80;;;10.10;95.80;;;;;;5003149;28;20271;-81
2022/11/23 01:42:57;;;;;;;9.13;2.90;;;10.00;95.80;;;;;;5020070;28;20170;-82
2022/11/23 01:45:35;;;;;;;11.90;3.07;;;10.00;95.10;;;;;;5002175;28;20174;-82
2022/11/23 01:48:04;;;;;;;9.07;3.13;;;10.10;95.60;;;;;;5003280;28;20182;-82
2022/11/23 01:50:30;;;;;;;9.30;2.83;;;10.10;95.20;;;;;;5019321;28;20170;-82
2022/11/23 01:52:56;;;;;;;11.70;2.57;;;10.10;94.40;;;;;;5019828;28;20174;-82
2022/11/23 01:55:23;;;;;;;11.10;2.93;;;10.10;94.70;;;;;;5018164;28;20201;-82
2022/11/23 01:57:49;;;;;;;9.20;2.77;;;10.10;94.40;;;;;;5018050;28;20174;-82
2022/11/23 02:00:15;;;;;;;11.33;2.83;;;10.00;94.20;;;;;;5002428;28;20220;-82
2022/11/23 02:02:49;;;;;;;10.00;2.83;;;10.10;94.70;;;;;;5001516;28;20181;-82
2022/11/23 02:05:18;;;;;;;9.60;2.60;;;10.00;94.10;;;;;;5018156;28;20229;-82
2022/11/23 02:07:46;;;;;;;11.07;2.90;;;10.00;93.70;;;;;;5019992;28;20582;-82
2022/11/23 02:10:12;;;;;;;11.30;3.17;;;10.00;93.30;;;;;;5002443;28;20174;-82
2022/11/23 02:12:38;;;;;;;8.23;2.23;;;10.00;93.80;;;;;;5021685;28;20221;-82
2022/11/23 02:15:04;;;;;;;11.10;2.70;;;10.10;93.10;;;;;;5001679;28;20273;-81
2022/11/23 02:17:32;;;;;;;14.97;3.50;;;10.20;91.60;;;;;;5021326;28;20259;-80
2022/11/23 02:20:16;;;;;;;9.30;2.27;;;10.30;91.30;;;;;;5005978;28;20214;-81
2022/11/23 02:23:10;;;;;;;13.00;2.87;;;10.10;92.20;;;;;;5013813;28;20150;-79
2022/11/23 02:25:45;;;;;;;12.40;3.10;;;10.10;90.90;;;;;;5035444;28;20182;-79
2022/11/23 02:28:39;;;;;;;13.37;3.10;;;10.10;91.60;;;;;;5038324;28;20185;-81
2022/11/23 02:31:10;;;;;;;12.00;2.70;;;9.90;92.00;;;;;;5039587;28;20258;-79
2022/11/23 02:33:39;;;;;;;13.37;3.30;;;9.80;93.00;;;;;;5040020;28;20191;-79
2022/11/23 02:36:30;;;;;;;11.67;2.97;;;10.00;92.50;;;;;;5038960;28;20238;-78
2022/11/23 02:39:07;;;;;;;10.33;3.53;;;9.80;92.80;;;;;;5037343;28;20197;-81
2022/11/23 02:41:40;;;;;;;14.30;4.13;;;9.80;93.00;;;;;;5035354;28;20158;-79
2022/11/23 02:44:32;;;;;;;14.90;3.60;;;9.80;92.50;;;;;;5038731;28;20166;-80
2022/11/23 02:47:10;;;;;;;13.67;4.77;;;9.80;92.10;;;;;;5026752;28;20159;-81
2022/11/23 02:49:39;;;;;;;10.83;6.00;;;9.80;92.30;;;;;;4999510;28;20665;-80
2022/11/23 02:52:05;;;;;;;12.40;5.27;;;9.80;92.10;;;;;;5017468;28;20689;-80
2022/11/23 02:54:31;;;;;;;16.70;4.77;;;9.80;91.10;;;;;;5001634;28;20185;-79
2022/11/23 02:57:04;;;;;;;13.30;5.20;;;9.80;91.20;;;;;;5000210;28;20207;-79
2022/11/23 02:59:32;;;;;;;15.17;4.53;;;9.80;91.00;;;;;;5017576;28;20202;-79
2022/11/23 03:02:03;;;;;;;14.77;3.70;;;9.80;90.50;;;;;;5017892;28;20345;-79
2022/11/23 03:04:29;;;;;;;10.93;3.43;;;9.90;89.60;;;;;;5019573;28;20166;-81
2022/11/23 03:06:55;;;;;;;12.07;3.13;;;10.10;87.00;;;;;;5019467;28;20241;-81
2022/11/23 03:09:21;;;;;;;11.40;3.37;;;9.90;87.30;;;;;;4999888;28;20170;-81
2022/11/23 03:11:49;;;;;;;12.23;2.87;;;10.00;89.40;;;;;;5000252;28;20170;-81
2022/11/23 03:14:15;;;;;;;11.30;3.20;;;9.80;89.30;;;;;;5001609;28;20170;-81
2022/11/23 03:16:41;;;;;;;9.13;2.50;;;9.90;89.00;;;;;;5016621;28;20162;-81
2022/11/23 03:19:07;;;;;;;11.40;2.87;;;9.80;88.50;;;;;;5018478;28;20221;-81
2022/11/23 03:21:32;;;;;;;12.40;3.20;;;9.80;90.00;;;;;;5000973;28;20189;-80
2022/11/23 03:23:58;;;;;;;11.30;2.67;;;9.80;90.00;;;;;;5019901;28;20635;-81
2022/11/23 03:26:24;;;;;;;14.93;3.47;;;9.80;88.90;;;;;;5019661;28;20233;-82
2022/11/23 03:28:49;;;;;;;15.13;3.20;;;9.90;88.00;;;;;;5003253;28;20170;-82
2022/11/23 03:31:15;;;;;;;11.63;2.63;;;10.00;86.80;;;;;;5002028;28;20546;-81
2022/11/23 03:33:41;;;;;;;11.53;3.70;;;10.00;86.40;;;;;;5015495;28;20192;-82
2022/11/23 03:36:07;;;;;;;11.60;3.23;;;10.00;86.80;;;;;;5016193;28;20182;-80
2022/11/23 03:38:32;;;;;;;8.93;3.07;;;10.00;87.50;;;;;;5000162;28;20285;-81
2022/11/23 03:40:58;;;;;;;15.00;3.07;;;10.10;90.80;;;;;;5017270;28;20645;-82
2022/11/23 03:43:25;;;;;;;11.30;3.00;;;9.90;92.40;;;;;;5000773;28;20188;-80
2022/11/23 03:45:50;;;;;;;11.03;2.87;;;9.80;94.60;;;;;;5017804;28;20206;-81
2022/11/23 03:48:16;;;;;;;15.80;3.00;;;9.70;96.20;;;;;;5015675;28;20177;-82
2022/11/23 03:50:43;;;;;;;11.17;3.03;;;9.80;96.80;;;;;;4999147;28;20221;-82
2022/11/23 03:53:08;;;;;;;15.70;3.27;;;9.80;97.10;;;;;;5016154;28;20665;-82
2022/11/23 03:55:34;;;;;;;14.90;3.73;;;9.60;97.80;;;;;;4998794;28;20181;-82
2022/11/23 03:58:00;;;;;;;12.30;3.60;;;9.70;98.80;;;;;;5016788;28;20262;-81
2022/11/23 04:00:27;;;;;;;12.77;3.47;;;9.60;99.70;;;;;;5000593;28;20348;-81
2022/11/23 04:02:53;;;;;;;14.30;3.17;;;9.60;99.80;;;;;;5017704;28;20162;-81
2022/11/23 04:05:19;;;;;;;14.40;3.93;;;9.60;99.90;;;;;;5000934;28;20236;-82
2022/11/23 04:07:46;;;;;;;11.40;2.93;;;9.50;99.90;;;;;;4986972;28;20261;-81
2022/11/23 04:10:15;;;;;;;16.73;3.30;;;9.50;99.90;;;;;;5001642;28;20224;-81
2022/11/23 04:12:40;;;;;;;10.17;3.30;;;9.50;99.90;;;;;;5016901;28;20163;-81
2022/11/23 04:15:07;;;;;;;16.33;4.53;;;9.60;99.90;;;;;;5017082;28;20165;-82
2022/11/23 04:17:32;;;;;;;13.90;3.87;;;9.50;99.90;;;;;;5018464;28;20167;-83
2022/11/23 04:19:59;;;;;;;13.33;3.20;;;9.50;99.90;;;;;;4999589;28;20205;-81
2022/11/23 04:22:25;;;;;;;11.73;3.43;;;9.60;99.90;;;;;;5016855;28;20174;-81
2022/11/23 04:24:50;;;;;;;14.70;3.90;;;9.60;99.90;;;;;;4997580;28;20661;-81
2022/11/23 04:27:16;;;;;;;12.70;3.20;;;9.50;99.60;;;;;;4996890;28;20178;-81
2022/11/23 04:29:42;;;;;;;16.03;3.20;;;9.60;99.90;;;;;;4997674;28;20190;-82
2022/11/23 04:32:08;;;;;;;13.77;3.57;;;9.40;98.50;;;;;;5016819;28;20244;-81
2022/11/23 04:34:33;;;;;;;14.53;3.40;;;9.50;97.80;;;;;;4999963;28;20631;-81
2022/11/23 04:36:59;;;;;;;13.77;3.57;;;9.50;97.60;;;;;;5000779;28;20220;-81
2022/11/23 04:39:25;;;;;;;10.30;2.87;;;9.40;98.00;;;;;;5017519;28;20198;-81
2022/11/23 04:41:51;;;;;;;15.40;3.60;;;9.60;98.40;;;;;;5000223;28;20220;-81
2022/11/23 04:44:19;;;;;;;11.53;3.33;;;9.50;98.00;;;;;;5017598;28;20551;-81
2022/11/23 04:46:45;;;;;;;15.17;4.00;;;9.60;97.10;;;;;;4985227;28;20189;-81
2022/11/23 04:49:12;;;;;;;12.80;3.27;;;9.40;97.10;;;;;;4999128;28;20178;-81
2022/11/23 04:51:38;;;;;;;12.77;4.03;;;9.40;97.60;;;;;;5018365;28;20167;-81
2022/11/23 04:54:04;;;;;;;18.87;4.17;;;9.40;97.10;;;;;;4999447;28;20198;-81
2022/11/23 04:56:31;;;;;;;15.97;3.10;;;9.30;97.00;;;;;;5018999;28;20182;-80
2022/11/23 04:58:56;;;;;;;14.23;3.70;;;9.40;96.60;;;;;;4999590;28;20549;-81
2022/11/23 05:01:22;;;;;;;13.20;3.13;;;9.20;96.00;;;;;;5000446;28;20210;-81
2022/11/23 05:03:48;;;;;;;15.63;2.90;;;9.20;96.10;;;;;;5018254;28;20212;-81
2022/11/23 05:06:13;;;;;;;12.63;3.20;;;9.20;95.90;;;;;;5007229;28;20186;-84
2022/11/23 05:08:40;;;;;;;17.27;3.43;;;9.10;96.10;;;;;;5024968;28;20167;-80
2022/11/23 05:11:07;;;;;;;11.70;3.37;;;9.10;95.90;;;;;;5018036;28;20181;-82
2022/11/23 05:13:33;;;;;;;14.00;3.83;;;9.10;95.60;;;;;;5034760;28;20159;-80
2022/11/23 05:16:23;;;;;;;14.37;3.80;;;9.10;95.50;;;;;;5027786;28;20229;-78
2022/11/23 05:18:50;;;;;;;12.87;3.60;;;9.10;95.50;;;;;;5007677;28;20186;-79
2022/11/23 05:21:16;;;;;;;17.00;3.80;;;8.90;95.60;;;;;;5023486;28;20666;-77
2022/11/23 05:23:42;;;;;;;11.17;2.77;;;8.90;95.30;;;;;;4998102;28;20198;-79
2022/11/23 05:26:08;;;;;;;15.33;3.63;;;8.90;95.60;;;;;;5030906;28;20183;-77
2022/11/23 05:28:36;;;;;;;13.30;3.70;;;8.90;95.30;;;;;;5029932;28;20716;-78
2022/11/23 05:31:04;;;;;;;12.33;3.30;;;8.90;94.90;;;;;;5021256;28;20229;-80
2022/11/23 05:33:30;;;;;;;10.53;3.13;;;8.90;95.30;;;;;;5000911;28;20174;-78
2022/11/23 05:35:56;;;;;;;17.77;3.33;;;8.80;94.90;;;;;;4999365;28;20190;-80
2022/11/23 05:38:22;;;;;;;11.77;3.43;;;8.90;94.60;;;;;;5011433;28;20209;-77
2022/11/23 05:40:47;;;;;;;14.93;3.10;;;8.80;94.30;;;;;;5031780;28;20658;-79
2022/11/23 05:43:15;;;;;;;10.90;3.17;;;8.80;94.60;;;;;;5013623;28;20623;-79
2022/11/23 05:45:42;;;;;;;11.37;3.20;;;8.70;94.90;;;;;;5028345;28;20261;-81
2022/11/23 05:48:09;;;;;;;13.20;3.20;;;8.80;95.10;;;;;;5007354;28;20182;-78
2022/11/23 05:50:37;;;;;;;14.03;3.37;;;8.80;94.60;;;;;;5008760;28;20245;-80
2022/11/23 05:53:04;;;;;;;13.27;3.70;;;8.70;94.80;;;;;;5007572;28;20174;-81
2022/11/23 05:55:31;;;;;;;11.13;2.67;;;8.70;95.00;;;;;;5009501;28;20269;-78
2022/11/23 05:57:58;;;;;;;11.73;3.00;;;8.80;95.00;;;;;;5009551;28;20183;-82
2022/11/23 06:00:23;;;;;;;16.40;3.93;;;8.70;94.80;;;;;;5015624;28;20201;-80
2022/11/23 06:03:00;;;;;;;12.63;2.93;;;8.70;94.80;;;;;;5017914;28;20258;-81
2022/11/23 06:05:29;;;;;;;11.63;2.93;;;8.60;94.90;;;;;;5001444;28;20246;-80
2022/11/23 06:08:00;;;;;;;12.03;2.93;;;8.60;95.00;;;;;;5016378;28;20171;-80
2022/11/23 06:10:27;;;;;;;10.93;2.90;;;8.50;95.20;;;;;;5015860;28;20220;-82
2022/11/23 06:13:00;;;;;;;15.77;3.23;;;8.50;95.20;;;;;;5030970;28;20167;-81
2022/11/23 06:15:25;;;;;;;10.80;2.97;;;8.50;95.40;;;;;;5017562;28;20194;-81
2022/11/23 06:17:52;;;;;;;13.57;3.20;;;8.50;95.50;;;;;;5017917;28;20163;-80
2022/11/23 06:20:18;;;;;;;11.27;3.23;;;8.50;95.10;;;;;;5034355;28;20217;-82
2022/11/23 06:22:51;;;;;;;11.30;3.73;;;8.50;95.60;;;;;;5019346;28;20158;-81
2022/11/23 06:25:17;;;;;;;13.10;2.97;;;8.50;94.90;;;;;;4997696;28;20630;-81
2022/11/23 06:27:42;;;;;;;12.63;3.30;;;8.50;95.10;;;;;;5008297;28;20178;-83
2022/11/23 06:30:09;;;;;;;12.47;4.03;;;8.60;95.70;;;;;;5009935;28;20175;-81
2022/11/23 06:32:34;;;;;;;13.13;3.17;;;8.50;95.60;;;;;;5028422;28;20183;-82
2022/11/23 06:35:02;;;;;;;9.37;2.40;;;8.40;96.00;;;;;;5011081;28;20205;-84
2022/11/23 06:37:28;;;;;;;10.77;3.10;;;8.40;96.20;;;;;;5027715;28;20178;-81
2022/11/23 06:39:54;;;;;;;10.27;2.93;;;8.40;96.70;;;;;;5010796;28;20221;-82
2022/11/23 06:42:19;;;;;;;8.80;2.87;;;8.40;96.50;;;;;;5008051;28;20730;-84
2022/11/23 06:44:45;;;;;;;13.93;3.37;;;8.40;96.70;;;;;;5009788;28;20186;-85
2022/11/23 06:47:11;;;;;;;14.27;3.03;;;8.40;97.10;;;;;;5008849;28;20170;-83
2022/11/23 06:49:40;;;;;;;13.00;2.97;;;8.30;97.90;;;;;;5027125;28;20193;-84
2022/11/23 06:52:07;;;;;;;14.80;3.23;;;8.40;98.10;;;;;;5010537;28;20182;-83
2022/11/23 06:54:35;;;;;;;16.20;3.10;;;8.20;98.70;;;;;;5010867;28;20171;-83
2022/11/23 06:57:00;;;;;;;15.13;3.63;;;8.10;99.50;;;;;;5026247;28;20178;-83
2022/11/23 06:59:27;;;;;;;11.90;3.30;;;8.10;99.90;;;;;;5024979;28;20198;-83
2022/11/23 07:01:53;;;;;;;9.77;3.33;;;8.10;99.90;;;;;;5008007;28;20178;-80
2022/11/23 07:04:24;;;;;;;13.07;3.13;;;7.90;99.90;;;;;;5007866;28;20171;-82
2022/11/23 07:06:50;;;;;;;12.87;3.37;;;8.10;99.90;;;;;;5025364;28;20166;-83
2022/11/23 07:09:19;;;;;;;14.67;3.57;;;8.00;99.90;;;;;;5005922;28;20182;-82
2022/11/23 07:11:45;;;;;;;13.03;2.80;;;8.00;99.90;;;;;;5007944;28;20178;-81
2022/11/23 07:14:13;;;;;;;12.93;3.07;;;7.90;99.90;;;;;;5007246;28;20174;-88
2022/11/23 07:16:39;;;;;;;15.50;3.67;;;7.90;99.90;;;;;;5008116;28;20182;-85
2022/11/23 07:19:05;;;;;;;9.07;3.30;;;7.90;99.90;;;;;;5006805;28;20185;-84
2022/11/23 07:21:31;;;;;;;19.53;3.50;;;7.80;99.90;;;;;;5026519;28;20222;-84
2022/11/23 07:23:56;;;;;;;10.70;3.07;;;7.80;99.90;;;;;;5011537;28;20185;-84
2022/11/23 07:26:23;;;;;;;10.40;3.40;;;7.70;99.90;;;;;;5027732;28;20216;-86
2022/11/23 07:28:50;;;;;;;10.27;3.37;;;7.80;99.90;;;;;;5012272;28;20213;-83
2022/11/23 07:31:16;;;;;;;14.90;3.40;;;7.80;99.90;;;;;;5012520;28;20244;-81
2022/11/23 07:33:46;;;;;;;13.27;3.67;;;7.80;99.90;;;;;;5009846;28;20170;-81
2022/11/23 07:36:13;;;;;;;12.63;3.87;;;7.80;99.90;;;;;;5006805;28;20197;-80
2022/11/23 07:38:39;;;;;;;10.90;3.70;;;7.70;99.90;;;;;;5008848;28;20174;-83
2022/11/23 07:41:06;;;;;;;13.60;3.70;;;7.80;99.90;;;;;;5023642;28;20209;-83
2022/11/23 07:43:33;;;;;;;13.17;3.20;;;7.70;99.90;;;;;;5026464;28;20159;-85
2022/11/23 07:46:00;;;;;;;14.47;3.20;;;7.70;99.90;;;;;;5027324;28;20174;-85
2022/11/23 07:48:34;;;;;;;14.40;3.57;;;7.70;99.90;;;;;;5029377;28;20197;-81
2022/11/23 07:51:01;;;;;;;12.80;3.27;;;7.80;99.90;;;;;;5033650;28;20170;-82
2022/11/23 07:53:27;;;;;;;14.27;3.70;;;7.70;99.90;;;;;;5019860;28;20167;-80
2022/11/23 07:55:57;;;;;;;11.77;3.53;;;7.80;99.90;;;;;;5017204;28;20198;-83
2022/11/23 07:58:31;;;;;;;15.00;3.43;;;7.80;99.90;;;;;;5015422;28;20190;-83
2022/11/23 08:01:00;;;;;;;12.43;3.40;;;7.80;99.90;;;;;;5026069;28;20628;-85
2022/11/23 08:03:30;;;;;;;14.53;4.23;;;7.80;99.90;;;;;;5006946;28;20178;-83
2022/11/23 08:06:00;;;;;;;13.87;3.73;;;7.90;99.90;;;;;;5024996;28;20645;-80
2022/11/23 08:08:29;;;;;;;16.43;4.30;;;8.00;99.90;;;;;;4990746;28;20246;-81
2022/11/23 08:11:13;;;;;;;11.70;3.27;;;8.00;99.90;;;;;;5008167;28;20181;-81
2022/11/23 08:13:44;;;;;;;18.90;3.70;;;8.00;99.90;;;;;;5010336;28;20170;-80
2022/11/23 08:16:18;;;;;;;12.40;3.20;;;8.00;99.90;;;;;;5024986;28;20166;-83
2022/11/23 08:18:49;;;;;;;12.70;3.87;;;8.00;99.90;;;;;;5027528;28;20162;-81
2022/11/23 08:21:23;;;;;;;13.93;3.80;;;8.10;99.90;;;;;;4990364;28;20218;-82
2022/11/23 08:23:55;;;;;;;15.90;4.87;;;8.20;99.90;;;;;;5026728;28;20312;-79
2022/11/23 08:26:21;;;;;;;13.27;3.33;;;8.20;99.90;;;;;;5013499;28;20174;-81
2022/11/23 08:28:56;;;;;;;13.40;3.90;;;8.30;99.90;;;;;;5033228;28;20311;-79
2022/11/23 08:31:52;;;;;;;13.47;3.37;;;8.30;99.90;;;;;;5031745;28;20224;-80
2022/11/23 08:34:25;;;;;;;13.10;4.03;;;8.40;99.90;;;;;;5025538;28;20189;-82
2022/11/23 08:36:55;;;;;;;13.20;3.73;;;8.40;99.90;;;;;;4989375;28;20204;-81
2022/11/23 08:39:33;;;;;;;15.20;3.10;;;8.40;99.90;;;;;;5006875;28;20186;-81
2022/11/23 08:42:01;;;;;;;12.20;2.90;;;8.50;99.90;;;;;;5025249;28;20182;-81
2022/11/23 08:44:28;;;;;;;15.57;3.20;;;8.60;99.90;;;;;;5004301;28;20546;-81
2022/11/23 08:46:55;;;;;;;10.27;3.10;;;8.50;99.90;;;;;;5002456;28;20273;-82
2022/11/23 08:49:22;;;;;;;11.07;3.40;;;8.60;99.90;;;;;;5019335;28;20194;-81
2022/11/23 08:51:48;;;;;;;10.87;3.10;;;8.60;99.90;;;;;;4999537;28;20185;-81
2022/11/23 08:54:14;;;;;;;9.90;3.30;;;8.70;99.90;;;;;;5001269;28;20166;-84
2022/11/23 08:56:40;;;;;;;10.53;3.33;;;8.80;99.90;;;;;;5021817;28;20182;-85
2022/11/23 08:59:07;;;;;;;13.00;3.80;;;8.80;98.90;;;;;;5002698;28;20269;-85
2022/11/23 09:01:33;;;;;;;11.27;3.40;;;8.80;98.60;;;;;;5023652;28;20734;-85
2022/11/23 09:04:00;;;;;;;10.87;3.27;;;8.80;98.70;;;;;;5006175;28;20182;-87
2022/11/23 09:06:34;;;;;;;7.57;2.80;;;8.80;98.10;;;;;;5031798;28;20252;-83
2022/11/23 09:09:00;;;;;;;9.63;3.13;;;8.90;98.50;;;;;;5026024;28;20205;-87
2022/11/23 09:11:26;;;;;;;13.83;2.80;;;8.80;99.30;;;;;;5007924;28;20538;-85
2022/11/23 09:13:52;;;;;;;7.50;3.00;;;8.70;98.80;;;;;;5009749;28;20194;-87
2022/11/23 09:16:19;;;;;;;8.53;3.33;;;8.70;98.90;;;;;;5029783;28;20241;-85
2022/11/23 09:18:48;;;;;;;8.83;2.80;;;8.60;99.50;;;;;;5018711;28;20182;-86
2022/11/23 09:21:20;;;;;;;10.50;2.40;;;8.70;99.30;;;;;;5038254;28;20209;-86
2022/11/23 09:23:46;;;;;;;10.80;3.20;;;8.70;99.40;;;;;;5023300;28;20162;-85
2022/11/23 09:26:12;;;;;;;12.93;3.47;;;8.80;99.90;;;;;;5033868;28;20178;-88
2022/11/23 09:28:38;;;;;;;7.37;3.07;;;8.80;99.80;;;;;;5036160;28;20175;-85
2022/11/23 09:31:06;;;;;;;8.43;3.43;;;8.90;99.50;;;;;;5041874;28;20221;-85
2022/11/23 09:33:32;;;;;;;11.30;3.07;;;8.90;99.40;;;;;;5009204;28;20163;-83
2022/11/23 09:35:59;;;;;;;7.83;2.97;;;9.00;99.70;;;;;;5040451;28;20151;-83
2022/11/23 09:38:27;;;;;;;9.97;3.03;;;9.10;99.10;;;;;;5038528;28;20294;-85
2022/11/23 09:41:32;;;;;;;7.53;2.53;;;9.10;98.20;;;;;;5019615;28;20221;-86
2022/11/23 09:44:07;;;;;;;6.27;2.50;;;9.10;97.30;;;;;;5039674;28;20162;-86
2022/11/23 09:46:51;;;;;;;7.97;2.73;;;9.10;97.90;;;;;;5024097;28;20177;-85
2022/11/23 09:49:21;;;;;;;12.03;4.40;;;9.20;97.30;;;;;;5022396;28;20201;-85
2022/11/23 09:51:49;;;;;;;7.83;3.03;;;9.20;95.90;;;;;;5024198;28;20169;-85
2022/11/23 09:54:33;;;;;;;7.40;2.70;;;9.30;96.20;;;;;;5023729;28;20166;-86
2022/11/23 09:56:59;;;;;;;7.80;2.77;;;9.50;96.30;;;;;;5012392;28;20199;-86
2022/11/23 09:59:39;;;;;;;11.13;3.33;;;9.40;94.90;;;;;;5011992;28;20160;-86
2022/11/23 10:02:23;;;;;;;6.53;2.80;;;9.50;94.80;;;;;;5010231;28;20167;-86
2022/11/23 10:04:57;;;;;;;11.40;3.53;;;9.50;94.60;;;;;;5011446;28;20179;-86
2022/11/23 10:07:57;;;;;;;9.47;2.40;;;9.70;94.20;;;;;;5010454;28;20620;-84
2022/11/23 10:10:47;;;;;;;7.13;2.60;;;9.70;92.40;;;;;;4996529;28;20198;-81
2022/11/23 10:13:25;;;;;;;7.40;2.80;;;9.70;92.00;;;;;;4991093;28;20643;-84
2022/11/23 10:16:32;;;;;;;5.93;2.10;;;9.80;92.10;;;;;;4991062;28;20174;-87
2022/11/23 10:19:25;;;;;;;6.97;2.30;;;9.80;90.50;;;;;;4940991;28;20193;-84
2022/11/23 10:22:18;;;;;;;6.83;2.03;;;10.00;88.70;;;;;;5009868;28;20187;-85
2022/11/23 10:24:54;;;;;;;10.27;2.90;;;9.90;88.20;;;;;;5008715;28;20162;-83
2022/11/23 10:27:24;;;;;;;5.50;2.20;;;10.00;87.70;;;;;;4989993;28;20538;-85
2022/11/23 10:29:57;;;;;;;4.93;2.10;;;9.90;90.00;;;;;;4960490;28;20178;-85
2022/11/23 10:32:35;;;;;;;5.80;2.33;;;10.00;89.20;;;;;;5000244;28;20203;-80
2022/11/23 10:35:13;;;;;;;9.20;2.90;;;10.10;86.20;;;;;;5019827;28;20175;-84
2022/11/23 10:37:43;;;;;;;5.67;2.40;;;10.20;85.10;;;;;;5020145;28;20185;-85
2022/11/23 10:40:23;;;;;;;9.23;2.40;;;10.30;82.80;;;;;;5020005;28;20201;-83
2022/11/23 10:43:15;;;;;;;3.60;1.73;;;10.40;81.30;;;;;;5001591;28;20211;-85
2022/11/23 10:45:47;;;;;;;5.27;2.17;;;10.30;81.20;;;;;;4994676;28;20195;-85
2022/11/23 10:48:36;;;;;;;7.10;2.13;;;10.40;82.70;;;;;;5011127;28;20175;-86
2022/11/23 10:51:28;;;;;;;5.30;1.87;;;10.20;80.80;;;;;;4987662;28;20172;-83
2022/11/23 10:54:01;;;;;;;11.27;3.70;;;10.10;86.00;;;;;;4991985;28;20190;-85
2022/11/23 10:56:30;;;;;;;8.03;4.07;;;10.20;86.70;;;;;;4990779;28;20248;-86
2022/11/23 10:58:56;;;;;;;6.47;2.53;;;10.20;86.20;;;;;;5007305;28;20183;-82
2022/11/23 11:01:38;;;;;;;8.97;2.07;;;10.40;85.70;;;;;;4989796;28;20203;-86
2022/11/23 11:04:20;;;;;;;7.10;2.47;;;10.30;85.10;;;;;;4983621;28;20201;-83
2022/11/23 11:06:46;;;;;;;9.93;3.53;;;10.30;86.60;;;;;;4976052;28;20279;-81
2022/11/23 11:09:38;;;;;;;7.03;2.50;;;10.40;85.00;;;;;;4990646;28;20175;-86
2022/11/23 11:12:14;;;;;;;25.33;14.30;;;10.40;82.90;;;;;;4990553;28;20723;-80
2022/11/23 11:15:17;;;;;;;13.00;3.83;;;10.50;84.20;;;;;;5013208;28;20159;-85
2022/11/23 11:17:43;;;;;;;7.03;3.27;;;10.50;81.20;;;;;;5016908;28;20238;-84
2022/11/23 11:20:33;;;;;;;9.73;3.30;;;10.50;82.80;;;;;;5015245;28;20627;-81
2022/11/23 11:23:03;;;;;;;6.97;2.80;;;10.50;82.20;;;;;;4995323;28;20186;-80
2022/11/23 11:25:35;;;;;;;8.63;3.30;;;10.60;83.50;;;;;;5015142;28;20255;-82
2022/11/23 11:28:17;;;;;;;8.83;2.60;;;10.70;81.20;;;;;;4999425;28;20270;-80
2022/11/23 11:38:14;;;;;;;9.43;3.27;;;11.20;72.00;;;;;;5006984;28;20189;-87
2022/11/23 11:40:48;;;;;;;10.47;2.90;;;11.20;69.90;;;;;;5011308;28;20234;-79
2022/11/23 11:43:23;;;;;;;7.10;2.43;;;11.10;69.90;;;;;;4986790;28;20186;-81
2022/11/23 11:46:01;;;;;;;5.77;2.20;;;11.20;69.60;;;;;;5004182;28;20178;-81
2022/11/23 11:48:32;;;;;;;10.37;2.47;;;11.30;67.40;;;;;;5006820;28;20179;-82
2022/11/23 11:51:41;;;;;;;5.17;2.00;;;11.30;63.20;;;;;;4997622;28;20167;-81
2022/11/23 11:54:41;;;;;;;9.07;2.50;;;11.20;63.80;;;;;;4998673;28;20167;-84
2022/11/23 11:57:28;;;;;;;6.00;2.47;;;11.20;65.00;;;;;;5001019;28;20221;-81
2022/11/23 12:00:04;;;;;;;7.27;2.43;;;11.30;63.90;;;;;;4998147;28;20245;-78
2022/11/23 12:02:40;;;;;;;9.63;2.57;;;11.30;63.30;;;;;;5006238;28;20189;-83
2022/11/23 12:05:47;;;;;;;7.37;2.80;;;11.40;60.00;;;;;;5014057;28;20186;-81
2022/11/23 12:08:49;;;;;;;7.63;2.13;;;11.30;59.30;;;;;;5032765;28;20178;-81
2022/11/23 12:11:18;;;;;;;8.57;2.10;;;11.30;59.70;;;;;;5027722;28;20177;-80
2022/11/23 12:13:48;;;;;;;6.93;2.27;;;11.20;65.90;;;;;;5015317;28;20158;-85
2022/11/23 12:16:39;;;;;;;4.77;1.87;;;11.10;70.50;;;;;;5010620;28;20188;-84
2022/11/23 12:19:18;;;;;;;7.93;1.70;;;11.10;75.60;;;;;;5024886;28;20178;-80
2022/11/23 12:22:09;;;;;;;5.80;1.53;;;11.00;78.30;;;;;;5012484;28;20178;-80
2022/11/23 12:25:10;;;;;;;6.17;2.10;;;11.00;79.10;;;;;;5008026;28;20186;-82
2022/11/23 12:28:15;;;;;;;4.53;1.80;;;10.90;83.70;;;;;;5007856;28;20182;-80
2022/11/23 12:30:51;;;;;;;5.03;1.70;;;10.90;86.20;;;;;;4990918;28;20199;-81
2022/11/23 12:33:56;;;;;;;6.53;1.70;;;10.80;88.90;;;;;;5013523;28;20241;-83
2022/11/23 12:36:45;;;;;;;3.67;1.83;;;10.80;90.80;;;;;;5003853;28;20232;-84
2022/11/23 12:39:45;;;;;;;5.57;1.93;;;10.70;92.40;;;;;;5013046;28;20190;-80
2022/11/23 12:42:27;;;;;;;4.93;2.20;;;10.60;94.20;;;;;;5016101;28;20209;-82
2022/11/23 12:45:38;;;;;;;5.77;1.80;;;10.50;96.20;;;;;;5015745;28;20272;-82
2022/11/23 12:48:42;;;;;;;5.50;1.60;;;10.40;97.30;;;;;;4978148;28;20198;-82
2022/11/23 12:51:36;;;;;;;9.17;2.33;;;10.40;98.80;;;;;;5013381;28;20626;-82
2022/11/23 12:54:26;;;;;;;4.60;1.93;;;10.30;99.90;;;;;;5012333;28;20170;-86
2022/11/23 12:57:19;;;;;;;4.43;1.60;;;10.40;99.90;;;;;;5021025;28;20162;-84
2022/11/23 12:59:58;;;;;;;4.93;2.10;;;10.30;99.90;;;;;;5015820;28;20202;-82
2022/11/23 13:02:51;;;;;;;5.20;1.50;;;10.20;99.90;;;;;;5024056;28;20166;-82
2022/11/23 13:05:52;;;;;;;5.70;1.80;;;10.10;99.90;;;;;;5014145;28;20233;-82
2022/11/23 13:08:29;;;;;;;6.60;2.40;;;10.00;99.90;;;;;;4972104;28;20186;-82
2022/11/23 13:11:32;;;;;;;4.70;1.90;;;10.00;99.90;;;;;;5010256;28;20237;-81
2022/11/23 13:14:15;;;;;;;6.77;3.50;;;10.00;99.90;;;;;;5009791;28;20231;-82
2022/11/23 13:16:59;;;;;;;6.03;1.70;;;9.90;99.90;;;;;;4997750;28;20182;-83
2022/11/23 13:20:08;;;;;;;8.07;1.83;;;10.00;99.90;;;;;;5001499;28;20194;-80